Time;durP1;ratioP1;P1;durP2;ratioP2;P2;SDS_P1;SDS_P2;PMS_P1;PMS_P2;Temp;Humidity;BMP_temperature;BMP_pressure;BME280_temperature;BME280_humidity;BME280_pressure;Samples;Min_cycle;Max_cycle;Signal;HPM_P1;HPM_P2
2021/05/23 11:48:39;;;;;;;;;3.00;2.00;;;;;21.84;29.68;101236.53;5093267;27;51048;-52
2021/05/23 11:51:09;;;;;;;;;1.00;1.00;;;;;22.03;29.17;101234.78;5097849;27;51233;-52
2021/05/23 11:53:42;;;;;;;;;1.00;1.00;;;;;22.32;28.83;101233.97;5084662;27;53729;-52
2021/05/23 11:56:13;;;;;;;;;2.00;2.00;;;;;22.67;28.50;101225.13;5087343;27;52134;-51
2021/05/23 11:58:38;;;;;;;;;1.00;1.00;;;;;23.11;27.33;101225.00;5080215;27;51053;-53
2021/05/23 12:01:12;;;;;;;;;2.33;1.00;;;;;23.33;27.02;101220.56;5081699;27;51327;-55
2021/05/23 12:03:37;;;;;;;;;4.00;4.00;;;;;23.57;27.37;101213.38;5088774;27;51092;-53
2021/05/23 12:06:03;;;;;;;;;2.67;2.67;;;;;23.94;27.31;101212.25;5086059;27;51695;-51
2021/05/23 12:08:28;;;;;;;;;1.67;1.00;;;;;24.12;26.74;101218.34;5351995;22;52000;-47
2021/05/23 12:11:03;;;;;;;;;1.00;1.00;;;;;24.13;26.21;101196.22;5323835;22;51228;-55
2021/05/23 12:13:44;;;;;;;;;1.00;1.00;;;;;24.05;26.44;101198.91;5044859;28;51316;-57
2021/05/23 12:16:12;;;;;;;;;2.00;2.00;;;;;23.96;25.89;101199.88;5043343;28;51927;-57
2021/05/23 12:18:46;;;;;;;;;2.33;2.00;;;;;23.83;26.67;101182.28;5046998;28;51107;-56
2021/05/23 12:21:16;;;;;;;;;1.00;1.00;;;;;23.73;25.90;101182.34;5045721;28;51105;-56
2021/05/23 12:23:44;;;;;;;;;4.00;4.00;;;;;23.50;26.06;101176.31;5045962;28;51085;-56
2021/05/23 12:26:12;;;;;;;;;0.33;0.33;;;;;23.27;26.42;101175.50;5028726;28;54237;-57
2021/05/23 12:28:42;;;;;;;;;1.00;1.00;;;;;22.94;26.26;101185.34;5044133;28;51074;-57
2021/05/23 12:31:10;;;;;;;;;1.00;1.00;;;;;22.51;26.73;101175.75;5042960;28;51154;-57
2021/05/23 12:33:37;;;;;;;;;2.00;2.00;;;;;22.28;27.07;101179.28;5046144;28;51138;-56
2021/05/23 12:36:12;;;;;;;;;0.67;0.67;;;;;22.25;27.00;101179.28;5046178;28;51870;-56
2021/05/23 12:38:52;;;;;;;;;1.00;1.00;;;;;22.15;27.40;101168.69;5032775;28;51069;-57
2021/05/23 12:41:18;;;;;;;;;1.67;1.67;;;;;22.15;27.42;101158.13;5045768;28;51278;-57
2021/05/23 12:43:43;;;;;;;;;1.33;1.00;;;;;22.19;27.78;101148.41;5046587;28;51239;-57
2021/05/23 12:46:16;;;;;;;;;3.00;2.00;;;;;22.18;27.88;101151.94;5023960;28;51138;-60
2021/05/23 12:48:46;;;;;;;;;2.00;2.00;;;;;22.09;27.78;101173.09;5041310;28;51255;-57
2021/05/23 12:51:14;;;;;;;;;2.67;2.67;;;;;21.96;28.10;101166.94;5042580;28;51265;-58
2021/05/23 12:53:41;;;;;;;;;1.67;1.67;;;;;21.96;28.03;101156.38;5044654;28;51076;-58
2021/05/23 12:56:24;;;;;;;;;1.00;1.00;;;;;21.80;28.16;101156.34;5046392;28;51688;-57
2021/05/23 12:58:55;;;;;;;;;2.67;2.00;;;;;21.82;28.28;101161.63;5035311;28;51072;-57
2021/05/23 13:01:25;;;;;;;;;1.67;1.67;;;;;21.59;28.49;101150.13;5024794;28;51494;-57
2021/05/23 13:04:02;;;;;;;;;1.33;1.00;;;;;21.41;28.70;101150.06;5031627;28;51212;-61
2021/05/23 13:06:57;;;;;;;;;1.00;1.00;;;;;21.33;29.14;101143.00;5019306;28;52216;-57
2021/05/23 13:09:35;;;;;;;;;3.33;2.67;;;;;21.34;29.57;101147.44;5031355;28;51460;-57
2021/05/23 13:12:03;;;;;;;;;3.00;2.67;;;;;21.18;29.55;101148.25;5031043;28;51214;-50
2021/05/23 13:14:32;;;;;;;;;2.00;2.00;;;;;20.94;29.70;101147.28;5032992;28;51348;-51
2021/05/23 13:16:59;;;;;;;;;1.67;1.67;;;;;20.90;30.55;101146.38;5028995;28;52195;-49
2021/05/23 13:19:29;;;;;;;;;2.00;1.00;;;;;20.92;30.49;101133.16;5031148;28;51493;-50
2021/05/23 13:21:57;;;;;;;;;2.00;2.00;;;;;20.85;30.21;101124.34;5032923;28;51233;-50
2021/05/23 13:24:26;;;;;;;;;6.67;6.67;;;;;20.72;30.85;101128.66;5033043;28;51027;-51
2021/05/23 13:26:57;;;;;;;;;1.33;1.33;;;;;20.76;30.47;101125.16;5030329;28;52419;-52
2021/05/23 13:29:24;;;;;;;;;2.00;2.00;;;;;20.88;30.73;101129.63;5027244;28;51460;-53
2021/05/23 13:31:53;;;;;;;;;2.33;1.33;;;;;20.85;30.34;101119.91;5033105;28;51075;-52
2021/05/23 13:34:22;;;;;;;;;2.33;2.00;;;;;20.82;30.82;101124.31;5034711;28;50896;-50
2021/05/23 13:36:48;;;;;;;;;1.00;1.00;;;;;20.77;30.51;101115.50;5011896;28;52067;-53
2021/05/23 13:39:14;;;;;;;;;2.33;1.00;;;;;20.70;30.79;101114.56;5030904;28;51140;-51
2021/05/23 13:41:41;;;;;;;;;2.00;2.00;;;;;20.64;30.96;101106.59;5032893;28;50983;-50
2021/05/23 13:44:08;;;;;;;;;0.67;0.67;;;;;20.80;31.10;101095.25;5031758;28;51145;-51
2021/05/23 13:46:35;;;;;;;;;1.00;0.67;;;;;20.99;30.88;101087.44;5012836;28;52158;-50
2021/05/23 13:49:01;;;;;;;;;1.00;1.00;;;;;20.98;30.57;101080.41;5031361;28;50939;-53
2021/05/23 13:54:03;;;;;;;;;2.33;1.00;;;;;20.52;31.40;101074.03;5023831;28;52947;-49
2021/05/23 13:56:29;;;;;;;;;2.00;2.00;;;;;20.24;31.61;101065.06;5031247;28;51307;-54
2021/05/23 13:58:55;;;;;;;;;1.00;1.00;;;;;20.16;31.60;101046.56;5022277;28;51073;-49
2021/05/23 14:01:20;;;;;;;;;1.67;1.67;;;;;20.22;32.06;101066.81;5027148;28;51557;-52
2021/05/23 14:03:46;;;;;;;;;1.33;1.33;;;;;20.32;31.48;101056.34;5026266;28;51196;-50
2021/05/23 14:06:12;;;;;;;;;1.00;1.00;;;;;20.37;31.17;101055.50;5012252;28;51312;-48
2021/05/23 14:08:38;;;;;;;;;4.00;1.00;;;;;20.49;31.50;101054.66;5011652;28;50931;-50
2021/05/23 14:11:08;;;;;;;;;0.67;0.67;;;;;20.71;31.41;101061.81;5019792;28;51209;-47
2021/05/23 14:13:36;;;;;;;;;1.33;1.00;;;;;20.84;31.01;101036.34;5023989;28;50931;-50
2021/05/23 14:16:03;;;;;;;;;6.00;5.67;;;;;20.91;30.34;101037.28;5012449;28;51284;-49
2021/05/23 14:18:30;;;;;;;;;1.33;1.00;;;;;21.19;30.32;101034.69;5027095;28;51124;-50
2021/05/23 14:20:56;;;;;;;;;2.00;2.00;;;;;21.19;30.41;101036.44;5022659;28;51873;-51
2021/05/23 14:23:22;;;;;;;;;1.00;1.00;;;;;21.10;30.04;101038.19;5013080;28;51262;-51
2021/05/23 14:25:48;;;;;;;;;0.00;0.00;;;;;20.98;30.06;101017.06;5011571;28;51922;-49
2021/05/23 14:28:13;;;;;;;;;0.00;0.00;;;;;20.96;30.40;101030.25;5012256;28;51104;-48
2021/05/23 14:30:39;;;;;;;;;3.00;3.00;;;;;20.92;30.16;101022.31;5021389;28;51311;-48
2021/05/23 14:33:05;;;;;;;;;1.33;1.00;;;;;20.90;30.71;101017.03;5011289;28;51432;-50
2021/05/23 14:35:31;;;;;;;;;1.00;1.00;;;;;20.90;30.79;101013.50;5022795;28;51389;-50
2021/05/23 14:37:56;;;;;;;;;3.00;3.00;;;;;20.78;30.43;101015.22;5024482;28;50921;-48
2021/05/23 14:40:23;;;;;;;;;4.33;3.00;;;;;20.62;30.81;101008.13;5011443;28;50955;-53
2021/05/23 14:42:49;;;;;;;;;1.00;1.00;;;;;20.54;30.63;101001.03;4998906;28;51252;-52
2021/05/23 14:45:14;;;;;;;;;1.00;1.00;;;;;20.45;30.30;101004.53;5019145;28;52882;-49
2021/05/23 14:47:41;;;;;;;;;2.00;2.00;;;;;20.38;30.30;101001.88;5010607;28;51067;-49
2021/05/23 14:50:10;;;;;;;;;1.67;1.33;;;;;20.23;30.76;101000.03;5023629;28;50999;-48
2021/05/23 14:52:36;;;;;;;;;1.00;1.00;;;;;20.30;30.72;101001.84;5022926;28;51203;-50
2021/05/23 14:55:06;;;;;;;;;1.00;1.00;;;;;20.39;30.72;101001.88;5022672;28;51145;-51
2021/05/23 14:57:32;;;;;;;;;1.00;1.00;;;;;20.31;30.53;100996.56;5011192;28;51352;-47
2021/05/23 14:59:58;;;;;;;;;2.67;2.67;;;;;20.32;30.65;100993.06;5011120;28;51135;-47
2021/05/23 15:02:23;;;;;;;;;1.00;1.00;;;;;20.29;30.96;100990.38;5011661;28;51057;-49
2021/05/23 15:04:48;;;;;;;;;2.00;1.33;;;;;20.31;30.99;100987.75;5010838;28;52453;-50
2021/05/23 15:07:14;;;;;;;;;1.00;1.00;;;;;20.55;31.27;100980.81;5010909;28;51013;-52
2021/05/23 15:09:43;;;;;;;;;1.00;1.00;;;;;20.61;30.53;100991.38;5013836;28;51283;-50
2021/05/23 15:12:09;;;;;;;;;1.00;1.00;;;;;20.61;30.61;100974.69;5028555;28;51305;-52
2021/05/23 15:14:34;;;;;;;;;3.00;3.00;;;;;20.57;31.05;100985.22;5010869;28;51779;-50
2021/05/23 15:16:59;;;;;;;;;3.00;2.00;;;;;20.39;30.60;100996.59;5010555;28;51185;-51
2021/05/23 15:19:25;;;;;;;;;2.00;2.00;;;;;20.23;31.23;100971.91;5010753;28;51122;-47
2021/05/23 15:21:50;;;;;;;;;1.33;1.33;;;;;20.11;31.21;100977.13;5010891;28;51082;-49
2021/05/23 15:24:16;;;;;;;;;1.67;1.67;;;;;19.94;31.73;100969.97;5010671;28;50977;-48
2021/05/23 15:31:52;;;;;;;;;1.67;0.00;;;;;19.77;32.31;100949.66;5013496;28;51239;-52
2021/05/23 15:34:17;;;;;;;;;2.67;2.67;;;;;19.86;32.55;100956.72;5021866;28;51906;-53
2021/05/23 15:36:43;;;;;;;;;2.67;2.33;;;;;19.91;32.35;100943.59;5029696;28;51151;-51
2021/05/23 15:39:08;;;;;;;;;0.67;0.67;;;;;19.95;32.02;100937.47;5030869;28;51075;-52
2021/05/23 15:41:34;;;;;;;;;3.67;3.67;;;;;19.97;32.77;100935.72;5030559;28;51252;-52
2021/05/23 15:43:59;;;;;;;;;3.67;3.67;;;;;19.99;33.11;100934.00;5025534;28;51785;-60
2021/05/23 15:46:26;;;;;;;;;1.00;1.00;;;;;19.84;33.13;100926.88;5029027;28;50969;-60
2021/05/23 15:48:51;;;;;;;;;1.33;1.33;;;;;19.68;33.00;100928.53;5012548;28;51157;-57
2021/05/23 15:51:17;;;;;;;;;1.33;1.33;;;;;19.60;32.59;100917.03;5027515;28;50990;-58
2021/05/23 15:53:43;;;;;;;;;3.67;3.67;;;;;19.52;33.37;100923.16;5023432;28;52001;-55
2021/05/23 15:56:09;;;;;;;;;7.33;7.33;;;;;19.48;34.00;100920.47;5007567;28;51107;-54
2021/05/23 15:58:34;;;;;;;;;2.00;2.00;;;;;19.46;33.10;100923.09;5016443;28;51086;-52
2021/05/23 16:01:01;;;;;;;;;1.33;1.00;;;;;19.52;32.96;100923.16;5015338;28;51124;-51
2021/05/23 16:03:26;;;;;;;;;1.00;1.00;;;;;19.54;31.96;100917.88;5012485;28;53819;-52
2021/05/23 16:05:52;;;;;;;;;4.67;3.67;;;;;19.59;32.29;100912.66;5009615;28;51091;-54
2021/05/23 16:08:17;;;;;;;;;1.00;1.00;;;;;19.70;32.11;100916.22;5027821;28;51286;-48
2021/05/23 16:10:43;;;;;;;;;2.00;1.67;;;;;19.88;31.85;100911.94;5028809;28;50981;-52
2021/05/23 16:13:08;;;;;;;;;0.67;0.67;;;;;20.01;31.70;100908.53;5020742;28;52940;-52
2021/05/23 16:15:34;;;;;;;;;3.00;2.33;;;;;20.06;31.20;100909.44;5010134;28;51008;-53
2021/05/23 16:18:00;;;;;;;;;4.00;4.00;;;;;20.03;31.81;100904.16;5009964;28;51179;-52
2021/05/23 16:20:25;;;;;;;;;8.67;7.00;;;;;20.17;32.37;100908.59;5010229;28;50931;-50
2021/05/23 16:22:51;;;;;;;;;2.67;2.67;;;;;20.28;31.88;100891.06;5010888;28;50955;-52
2021/05/23 16:25:16;;;;;;;;;7.00;7.00;;;;;20.32;31.74;100889.31;5025457;28;50902;-55
2021/05/23 16:27:42;;;;;;;;;1.67;1.67;;;;;20.22;31.39;100883.16;5023069;28;51104;-48
2021/05/23 16:30:08;;;;;;;;;3.00;2.67;;;;;20.04;32.21;100887.47;5020793;28;50956;-48
2021/05/23 16:32:33;;;;;;;;;4.00;3.67;;;;;19.86;32.40;100884.72;4991797;28;51036;-50
2021/05/23 16:35:02;;;;;;;;;0.67;0.67;;;;;19.75;32.27;100869.75;5015977;28;51151;-51
2021/05/23 16:37:27;;;;;;;;;2.67;2.67;;;;;19.64;32.65;100879.31;5033663;28;50997;-47
2021/05/23 16:39:52;;;;;;;;;1.67;1.33;;;;;19.52;32.79;100878.38;5033630;28;51168;-48
2021/05/23 16:42:19;;;;;;;;;3.33;3.33;;;;;19.38;32.76;100867.75;5031528;28;52112;-51
2021/05/23 16:44:44;;;;;;;;;3.33;3.00;;;;;19.22;33.04;100874.66;5023647;28;50995;-50
2021/05/23 16:47:09;;;;;;;;;4.00;3.00;;;;;19.10;33.57;100866.69;5021806;28;51167;-48
2021/05/23 16:49:37;;;;;;;;;2.00;2.00;;;;;19.04;33.50;100867.47;5013566;28;50986;-48
2021/05/23 16:52:03;;;;;;;;;2.00;1.33;;;;;18.91;33.94;100869.13;5012982;28;51157;-50
2021/05/23 16:54:28;;;;;;;;;2.33;2.33;;;;;18.86;34.11;100870.81;5011859;28;50960;-52
2021/05/23 16:56:54;;;;;;;;;4.67;4.00;;;;;18.96;34.48;100866.53;5013540;28;51121;-50
2021/05/23 16:59:19;;;;;;;;;2.00;1.33;;;;;19.10;34.43;100864.06;5014057;28;51275;-53
2021/05/23 17:01:46;;;;;;;;;2.00;2.00;;;;;19.11;34.47;100865.81;5011714;28;51782;-52
2021/05/23 17:04:11;;;;;;;;;1.00;1.00;;;;;19.17;34.64;100865.84;5023920;28;51357;-57
2021/05/23 17:06:37;;;;;;;;;3.00;3.00;;;;;19.25;34.48;100861.53;5024093;28;51500;-52
2021/05/23 17:09:03;;;;;;;;;1.00;1.00;;;;;19.32;34.04;100861.56;5013274;28;50885;-50
2021/05/23 17:11:28;;;;;;;;;0.00;0.00;;;;;19.28;33.49;100858.03;5013373;28;51007;-53
2021/05/23 17:13:53;;;;;;;;;4.67;4.00;;;;;19.13;33.83;100856.16;5016188;28;51007;-52
2021/05/23 17:16:19;;;;;;;;;2.00;2.00;;;;;19.08;33.85;100860.50;5018558;28;51149;-55
2021/05/23 17:18:44;;;;;;;;;2.33;2.33;;;;;18.97;33.92;100863.91;5019827;28;51308;-50
2021/05/23 17:21:10;;;;;;;;;4.00;4.00;;;;;18.84;34.12;100859.41;5013340;28;51733;-53
2021/05/23 17:23:35;;;;;;;;;2.33;2.00;;;;;18.75;34.32;100860.22;5020748;28;51445;-49
2021/05/23 17:26:01;;;;;;;;;3.33;3.00;;;;;18.61;34.49;100853.06;5028556;28;51082;-50
2021/05/23 17:28:26;;;;;;;;;2.67;2.67;;;;;18.49;34.52;100859.09;5016513;28;50968;-53
2021/05/23 17:30:51;;;;;;;;;3.00;3.00;;;;;18.40;34.63;100853.75;5017288;28;52115;-49
2021/05/23 17:33:17;;;;;;;;;3.33;3.33;;;;;18.32;34.93;100837.84;5013048;28;50957;-52
2021/05/23 17:35:42;;;;;;;;;5.00;5.00;;;;;18.29;35.16;100844.84;5021215;28;51318;-51
2021/05/23 17:38:07;;;;;;;;;6.00;5.33;;;;;18.29;35.62;100845.72;5015855;28;50999;-50
2021/05/23 17:40:34;;;;;;;;;5.00;4.67;;;;;18.33;35.36;100836.13;5023960;28;51571;-56
2021/05/23 17:42:59;;;;;;;;;2.00;1.67;;;;;18.39;35.20;100838.81;5028031;28;51102;-52
2021/05/23 17:45:25;;;;;;;;;2.33;2.00;;;;;18.46;34.96;100837.13;5027789;28;51182;-52
2021/05/23 17:47:50;;;;;;;;;4.33;3.00;;;;;18.45;34.98;100838.88;5013469;28;51051;-50
2021/05/23 17:50:21;;;;;;;;;2.67;2.67;;;;;18.44;34.68;100834.47;5012963;28;51628;-51
2021/05/23 17:52:46;;;;;;;;;1.33;1.33;;;;;18.45;34.47;100831.00;4991080;28;51014;-52
2021/05/23 17:55:13;;;;;;;;;1.00;1.00;;;;;18.40;34.58;100832.72;4981819;28;51333;-51
2021/05/23 17:57:39;;;;;;;;;6.33;6.33;;;;;18.37;34.35;100827.41;4991398;28;51063;-49
2021/05/23 18:00:08;;;;;;;;;3.00;3.00;;;;;18.38;34.25;100837.06;4992870;28;51677;-52
2021/05/23 18:02:33;;;;;;;;;2.00;2.00;;;;;18.36;34.55;100830.91;4992618;28;51014;-48
2021/05/23 18:04:58;;;;;;;;;3.33;2.67;;;;;18.34;34.42;100844.03;4987308;28;51219;-50
2021/05/23 18:07:24;;;;;;;;;2.67;2.67;;;;;18.32;34.35;100844.88;4986234;28;50997;-53
2021/05/23 18:09:49;;;;;;;;;5.00;4.00;;;;;18.28;34.45;100837.81;4992553;28;51794;-52
2021/05/23 18:12:15;;;;;;;;;3.00;3.00;;;;;18.24;34.45;100827.25;4991726;28;51131;-53
2021/05/23 18:14:40;;;;;;;;;5.00;4.00;;;;;18.20;34.71;100830.72;4988821;28;51395;-52
2021/05/23 18:17:06;;;;;;;;;1.00;1.00;;;;;18.19;34.71;100831.59;5001084;28;51289;-47
2021/05/23 18:19:31;;;;;;;;;1.67;1.67;;;;;18.16;34.83;100818.41;4992509;28;51827;-53
2021/05/23 18:21:56;;;;;;;;;1.00;1.00;;;;;18.16;34.77;100822.81;4992765;28;51062;-50
2021/05/23 18:24:22;;;;;;;;;3.33;3.00;;;;;18.13;34.95;100822.75;5008225;28;50984;-51
2021/05/23 18:26:47;;;;;;;;;4.00;4.00;;;;;18.09;35.27;100819.22;4977974;28;51455;-52
2021/05/23 18:29:12;;;;;;;;;3.00;3.00;;;;;18.06;35.95;100824.41;4988041;28;51744;-51
2021/05/23 18:31:38;;;;;;;;;3.00;3.00;;;;;18.02;36.51;100841.00;4988897;28;50985;-48
2021/05/23 18:34:04;;;;;;;;;3.00;3.00;;;;;17.97;37.44;100827.81;4980959;28;51051;-50
2021/05/23 18:36:30;;;;;;;;;6.67;6.33;;;;;17.93;37.71;100832.16;4978039;28;51998;-51
2021/05/23 18:38:56;;;;;;;;;2.00;2.00;;;;;17.92;38.98;100829.50;4980889;28;52170;-51
2021/05/23 18:41:21;;;;;;;;;3.33;1.33;;;;;17.87;39.92;100832.06;4981911;28;52164;-53
2021/05/23 18:43:51;;;;;;;;;3.33;3.33;;;;;17.78;39.76;100834.56;4983168;28;52512;-50
2021/05/23 18:46:17;;;;;;;;;2.00;2.00;;;;;17.69;41.65;100844.09;4979108;28;51215;-52
2021/05/23 18:48:45;;;;;;;;;5.00;4.33;;;;;17.62;40.75;100842.25;4972900;28;51803;-52
2021/05/23 18:51:11;;;;;;;;;1.33;1.33;;;;;17.56;41.89;100853.53;4982998;28;51061;-52
2021/05/23 18:53:37;;;;;;;;;3.33;3.33;;;;;17.49;42.38;100824.56;5012136;28;52432;-52
2021/05/23 18:56:02;;;;;;;;;2.00;2.00;;;;;17.43;41.72;100828.88;5013846;28;51291;-49
2021/05/23 18:58:28;;;;;;;;;2.67;2.67;;;;;17.34;41.70;100831.38;5014805;28;51297;-52
2021/05/23 19:00:55;;;;;;;;;1.33;1.00;;;;;17.29;42.10;100830.41;5020632;28;51291;-49
2021/05/23 19:03:20;;;;;;;;;2.67;2.33;;;;;17.24;42.64;100834.72;5015203;28;51212;-54
2021/05/23 19:05:46;;;;;;;;;2.00;1.67;;;;;17.18;42.00;100831.13;5015890;28;52454;-53
2021/05/23 19:08:11;;;;;;;;;1.00;1.00;;;;;17.13;42.72;100821.44;5016677;28;51788;-53
2021/05/23 19:10:37;;;;;;;;;1.00;1.00;;;;;17.07;43.06;100822.19;5021119;28;52575;-49
2021/05/23 19:13:04;;;;;;;;;2.00;2.00;;;;;17.02;43.14;100829.09;5019656;28;52109;-54
2021/05/23 19:15:30;;;;;;;;;1.00;1.00;;;;;16.95;43.44;100819.34;5025521;28;51345;-52
2021/05/23 19:17:55;;;;;;;;;4.67;2.00;;;;;16.88;43.21;100818.34;5022511;28;52605;-53
2021/05/23 19:20:26;;;;;;;;;1.00;1.00;;;;;16.81;43.19;100812.16;5021958;28;51186;-51
2021/05/23 19:22:52;;;;;;;;;3.33;3.00;;;;;16.74;43.00;100815.53;5017183;28;51088;-51
2021/05/23 19:25:18;;;;;;;;;2.67;2.00;;;;;16.70;43.27;100822.47;5021519;28;51263;-49
2021/05/23 19:27:44;;;;;;;;;2.00;1.00;;;;;16.65;43.36;100819.75;5004191;28;54525;-51
2021/05/23 19:30:13;;;;;;;;;1.00;1.00;;;;;16.62;43.26;100809.22;5023173;28;51239;-50
2021/05/23 19:32:38;;;;;;;;;1.00;1.00;;;;;16.59;43.38;100809.16;5029679;28;51321;-53
2021/05/23 19:35:05;;;;;;;;;1.00;1.00;;;;;16.56;43.80;100805.59;5029330;28;51052;-51
2021/05/23 19:37:31;;;;;;;;;15.00;13.75;;;;;16.55;44.31;100817.81;5031247;28;51006;-49
2021/05/23 19:39:56;;;;;;;;;18.50;17.25;;;;;16.52;44.26;100807.28;5029480;28;51207;-49
2021/05/23 19:42:23;;;;;;;;;2.00;2.00;;;;;16.49;44.32;100797.63;5030991;28;50834;-52
2021/05/23 19:44:48;;;;;;;;;2.00;1.00;;;;;16.45;44.64;100806.28;5024118;28;51407;-50
2021/05/23 19:47:14;;;;;;;;;2.00;2.00;;;;;16.43;45.12;100820.22;5030827;28;52382;-55
2021/05/23 19:49:46;;;;;;;;;1.00;1.00;;;;;16.38;45.21;100804.41;5032119;28;51064;-50
2021/05/23 19:52:17;;;;;;;;;1.00;1.00;;;;;16.34;45.38;100810.47;5022329;28;50837;-50
2021/05/23 19:54:43;;;;;;;;;1.00;1.00;;;;;16.29;45.50;100810.34;5029949;28;51116;-52
2021/05/23 19:57:09;;;;;;;;;37.50;32.50;;;;;16.27;45.65;100815.59;5010744;28;53053;-52
2021/05/23 19:59:35;;;;;;;;;9.00;8.00;;;;;16.25;45.43;100803.31;5030206;28;51215;-54
2021/05/23 20:02:01;;;;;;;;;5.67;5.33;;;;;16.24;45.81;100807.66;5029765;28;51293;-52
2021/05/23 20:04:26;;;;;;;;;2.00;2.00;;;;;16.24;45.30;100806.75;5030272;28;51142;-49
2021/05/23 20:06:52;;;;;;;;;2.00;2.00;;;;;16.22;45.84;100803.25;5029066;28;51145;-53
2021/05/23 20:09:17;;;;;;;;;5.00;5.00;;;;;16.22;45.47;100805.88;5013133;28;51205;-50
2021/05/23 20:11:42;;;;;;;;;6.50;6.50;;;;;16.22;46.43;100800.63;5024074;28;50962;-52
2021/05/23 20:14:08;;;;;;;;;1.67;1.67;;;;;16.21;47.19;100806.72;5032155;28;51070;-49
2021/05/23 20:16:33;;;;;;;;;4.00;4.00;;;;;16.20;46.16;100797.97;5016684;28;51930;-48
2021/05/23 20:18:58;;;;;;;;;2.67;2.67;;;;;16.19;46.65;100806.69;5032665;28;50929;-50
2021/05/23 20:21:24;;;;;;;;;1.00;1.00;;;;;16.16;47.30;100797.91;5034093;28;51275;-53
2021/05/23 20:23:51;;;;;;;;;54.50;46.00;;;;;16.13;47.46;100786.50;5028351;28;51014;-51
2021/05/23 20:26:16;;;;;;;;;2.00;2.00;;;;;16.11;47.34;100795.19;5033572;28;53967;-68
2021/05/23 20:28:41;;;;;;;;;1.00;1.00;;;;;16.09;47.65;100783.81;5034003;28;51164;-66
2021/05/23 20:31:07;;;;;;;;;1.00;1.00;;;;;16.04;51.10;100788.94;5032985;28;51177;-43
2021/05/23 20:33:32;;;;;;;;;2.00;2.00;;;;;15.89;57.61;100792.09;5027956;28;51299;-44
2021/05/23 20:35:58;;;;;;;;;1.33;1.33;;;;;15.60;58.49;100792.38;5033604;28;51709;-44
2021/05/23 20:38:23;;;;;;;;;1.00;1.00;;;;;15.35;59.26;100774.41;5028933;28;51445;-43
2021/05/23 20:40:50;;;;;;;;;2.00;2.00;;;;;15.16;59.73;100791.44;5007063;28;51483;-42
2021/05/23 20:43:15;;;;;;;;;2.00;2.00;;;;;15.03;61.26;100786.75;5309365;22;51284;-49
2021/05/23 20:45:41;;;;;;;;;2.00;2.00;;;;;14.95;58.69;100787.44;5045407;28;52782;-48
2021/05/23 20:48:06;;;;;;;;;3.00;3.00;;;;;14.90;57.95;100786.47;5074910;27;51107;-52
2021/05/23 20:50:32;;;;;;;;;3.00;3.00;;;;;14.87;56.20;100782.91;5048581;28;51188;-49
2021/05/23 20:52:57;;;;;;;;;3.67;3.00;;;;;14.88;56.20;100779.44;5065972;28;51394;-49
2021/05/23 20:55:23;;;;;;;;;2.67;2.00;;;;;14.88;55.98;100774.19;5070650;28;51580;-51
2021/05/23 20:57:49;;;;;;;;;8.00;8.00;;;;;14.88;55.89;100780.31;5065276;28;51180;-52
2021/05/23 21:00:15;;;;;;;;;2.00;2.00;;;;;14.88;55.94;100771.59;5058990;28;51030;-50
2021/05/23 21:02:42;;;;;;;;;4.00;2.00;;;;;14.86;55.89;100774.16;5067140;27;51291;-49
2021/05/23 21:05:07;;;;;;;;;3.00;3.00;;;;;14.86;55.43;100782.00;5049863;28;52954;-49
2021/05/23 21:07:33;;;;;;;;;2.67;2.67;;;;;14.86;55.75;100775.91;5047071;28;51293;-48
2021/05/23 21:10:00;;;;;;;;;5.33;3.67;;;;;14.86;55.28;100770.69;5044337;28;51140;-51
2021/05/23 21:12:25;;;;;;;;;4.00;4.00;;;;;14.85;55.60;100777.63;5050373;28;51298;-49
2021/05/23 21:14:52;;;;;;;;;3.00;2.00;;;;;14.83;55.14;100774.09;5037502;28;51809;-50
2021/05/23 21:17:17;;;;;;;;;3.00;2.00;;;;;14.84;54.98;100778.47;5032551;28;51133;-51
2021/05/23 21:19:43;;;;;;;;;3.33;2.00;;;;;14.86;55.13;100781.13;5047453;28;50938;-50
2021/05/23 21:22:08;;;;;;;;;3.00;3.00;;;;;14.85;54.51;100771.50;5051257;28;51185;-48
2021/05/23 21:24:33;;;;;;;;;3.00;2.33;;;;;14.82;55.18;100773.22;5048800;28;50992;-48
2021/05/23 21:26:59;;;;;;;;;2.00;2.00;;;;;14.82;54.50;100773.22;5049936;28;51365;-47
2021/05/23 21:29:25;;;;;;;;;3.00;2.00;;;;;14.79;54.66;100770.50;5048740;28;51020;-48
2021/05/23 21:31:51;;;;;;;;;2.00;2.00;;;;;14.76;54.33;100769.56;5053404;28;51401;-50
2021/05/23 21:34:18;;;;;;;;;3.00;2.33;;;;;14.76;53.86;100767.84;5049256;28;51377;-50
2021/05/23 21:36:43;;;;;;;;;1.33;1.33;;;;;14.73;53.54;100761.59;5051195;28;51195;-49
2021/05/23 21:39:09;;;;;;;;;2.00;2.00;;;;;14.67;53.09;100768.44;5057007;28;51330;-49
2021/05/23 21:41:34;;;;;;;;;1.00;1.00;;;;;14.62;53.35;100762.22;5051756;28;51209;-49
2021/05/23 21:44:00;;;;;;;;;1.33;1.00;;;;;14.57;53.14;100763.84;5042914;28;53577;-49
2021/05/23 21:46:25;;;;;;;;;1.00;1.00;;;;;14.55;52.94;100761.19;5043512;28;51142;-48
2021/05/23 21:48:50;;;;;;;;;3.00;2.00;;;;;14.54;52.57;100759.44;5035693;28;51525;-49
2021/05/23 21:51:16;;;;;;;;;1.00;1.00;;;;;14.54;52.63;100768.97;5047054;28;51167;-49
2021/05/23 21:53:41;;;;;;;;;1.00;1.00;;;;;14.57;52.47;100764.75;5050480;28;51808;-50
2021/05/23 21:56:07;;;;;;;;;1.00;1.00;;;;;14.61;52.30;100764.78;5051406;28;51119;-50
2021/05/23 21:58:32;;;;;;;;;1.00;1.00;;;;;14.63;51.78;100752.66;5040670;28;51032;-49
2021/05/23 22:00:58;;;;;;;;;0.00;0.00;;;;;14.66;51.41;100753.63;5051053;28;51260;-49
2021/05/23 22:03:26;;;;;;;;;2.00;1.00;;;;;14.67;51.91;100758.00;5049709;28;51158;-50
2021/05/23 22:05:53;;;;;;;;;1.00;1.00;;;;;14.70;51.55;100757.19;5039654;28;51250;-51
2021/05/23 22:08:18;;;;;;;;;1.00;1.00;;;;;14.72;51.17;100749.38;5051328;28;51150;-50
2021/05/23 22:10:44;;;;;;;;;1.00;1.00;;;;;14.69;50.92;100753.69;5049002;28;50927;-50
2021/05/23 22:13:09;;;;;;;;;1.00;1.00;;;;;14.70;50.55;100759.78;5051271;28;51144;-48
2021/05/23 22:15:35;;;;;;;;;1.67;1.67;;;;;14.68;50.80;100757.16;5038566;28;51322;-51
2021/05/23 22:18:00;;;;;;;;;1.00;1.00;;;;;14.67;50.90;100757.13;5052566;28;51094;-50
2021/05/23 22:20:26;;;;;;;;;1.00;1.00;;;;;14.67;50.64;100744.06;5040340;28;51114;-52
2021/05/23 22:22:52;;;;;;;;;1.00;1.00;;;;;14.64;50.32;100750.09;5052472;28;51056;-49
2021/05/23 22:25:19;;;;;;;;;1.00;1.00;;;;;14.63;50.38;100737.84;5038046;28;51257;-50
2021/05/23 22:27:45;;;;;;;;;0.33;0.33;;;;;14.62;50.27;100745.69;5051969;28;51150;-48
2021/05/23 22:30:14;;;;;;;;;1.00;1.00;;;;;14.59;50.01;100742.97;5050310;28;51855;-49
2021/05/23 22:32:40;;;;;;;;;1.33;1.00;;;;;14.56;49.93;100738.56;5045046;28;51296;-49
2021/05/23 22:35:08;;;;;;;;;2.33;2.00;;;;;14.54;49.79;100738.50;5050501;28;51149;-47
2021/05/23 22:37:33;;;;;;;;;1.33;1.00;;;;;14.53;49.79;100736.75;5048688;28;51075;-51
2021/05/23 22:39:58;;;;;;;;;1.00;1.00;;;;;14.50;49.89;100736.66;5038304;28;51445;-49
2021/05/23 22:42:24;;;;;;;;;0.00;0.00;;;;;14.48;49.74;100735.75;5043626;28;52716;-55
2021/05/23 22:44:50;;;;;;;;;1.00;1.00;;;;;14.44;49.84;100736.53;5043384;28;51499;-50
2021/05/23 22:47:15;;;;;;;;;0.00;0.00;;;;;14.41;49.86;100726.00;5046710;28;51100;-49
2021/05/23 22:49:40;;;;;;;;;1.00;1.00;;;;;14.39;50.02;100727.69;5035419;28;51329;-48
2021/05/23 22:52:06;;;;;;;;;0.00;0.00;;;;;14.37;49.84;100718.91;5046945;28;53082;-48
2021/05/23 22:54:31;;;;;;;;;1.00;1.00;;;;;14.31;49.93;100723.13;5046189;28;51204;-48
2021/05/23 22:57:03;;;;;;;;;0.33;0.33;;;;;14.26;49.75;100721.25;5046149;28;51580;-49
2021/05/23 22:59:28;;;;;;;;;0.33;0.00;;;;;14.21;50.22;100718.53;5039922;28;51006;-51
2021/05/23 23:01:53;;;;;;;;;1.00;1.00;;;;;14.18;50.02;100713.22;5026466;28;52914;-48
2021/05/23 23:04:21;;;;;;;;;0.00;0.00;;;;;14.13;50.35;100712.22;5043281;28;51139;-50
2021/05/23 23:06:46;;;;;;;;;1.00;1.00;;;;;14.10;50.39;100714.75;5041191;28;51462;-48
2021/05/23 23:09:13;;;;;;;;;0.00;0.00;;;;;14.08;50.16;100701.66;5043377;28;51133;-50
2021/05/23 23:11:39;;;;;;;;;1.00;1.00;;;;;14.05;50.34;100704.19;5043810;28;52605;-49
2021/05/23 23:14:05;;;;;;;;;1.00;0.00;;;;;14.01;50.13;100700.63;5041460;28;50889;-49
2021/05/23 23:16:35;;;;;;;;;0.00;0.00;;;;;14.00;50.43;100693.59;5041277;28;51137;-49